SDG094 LIRQ-LIEE
Flight info
| Callsign | SDG094 |
|---|---|
| Flight time | 0h 56m |
| Altitude | 33000 |
| Route | KUGIX DCT APSUX DCT DEXUL Q125 KOVAS |
| Aircraft | A320/M-SDE3FGHIRWY/LB1 |
Departure
| Time | 2026-05-08 22:37 |
|---|---|
| Airport | Florence Airport, Peretola (LIRQ) |
Arrival
| Time | 2026-05-08 23:33 |
|---|---|
| Airport | Cagliari Elmas Airport (LIEE) |
| Time | Latitude | Longitude | Altitude | Speed | Heading |
|---|---|---|---|---|---|
| 2026-05-08 22:09 | 43.80341 | 11.20042 | 132 ft | 0 kts | 86° |
| 2026-05-08 22:31 | 43.80340 | 11.20037 | 132 ft | 3 kts | 85° |
| 2026-05-08 22:31 | 43.80334 | 11.20002 | 131 ft | 4 kts | 57° |
| 2026-05-08 22:31 | 43.80316 | 11.19980 | 131 ft | 4 kts | 9° |
| 2026-05-08 22:32 | 43.80306 | 11.19978 | 132 ft | 1 kts | 360° |
| 2026-05-08 22:32 | 43.80305 | 11.19978 | 132 ft | 1 kts | 360° |
| 2026-05-08 22:34 | 43.80316 | 11.19978 | 131 ft | 5 kts | 360° |
| 2026-05-08 22:35 | 43.80366 | 11.19976 | 130 ft | 8 kts | 351° |
| 2026-05-08 22:35 | 43.80398 | 11.19923 | 127 ft | 7 kts | 302° |
| 2026-05-08 22:35 | 43.80441 | 11.19861 | 125 ft | 10 kts | 318° |
| 2026-05-08 22:35 | 43.80497 | 11.19793 | 122 ft | 11 kts | 325° |
| 2026-05-08 22:36 | 43.80551 | 11.19813 | 121 ft | 6 kts | 40° |
| 2026-05-08 22:36 | 43.80567 | 11.19835 | 125 ft | 0 kts | 49° |
| 2026-05-08 22:36 | 43.80570 | 11.19839 | 126 ft | 7 kts | 49° |
| 2026-05-08 22:36 | 43.80805 | 11.20205 | 134 ft | 92 kts | 48° |
| 2026-05-08 22:37 | 43.81380 | 11.21090 | 183 ft | 151 kts | 49° |
| 2026-05-08 22:37 | 43.82110 | 11.22148 | 880 ft | 150 kts | 33° |
| 2026-05-08 22:37 | 43.83091 | 11.22531 | 1680 ft | 150 kts | 356° |
| 2026-05-08 22:37 | 43.84075 | 11.22084 | 2344 ft | 149 kts | 324° |
| 2026-05-08 22:38 | 43.84698 | 11.20966 | 2854 ft | 150 kts | 287° |
| 2026-05-08 22:38 | 43.84715 | 11.19543 | 3360 ft | 150 kts | 251° |
| 2026-05-08 22:38 | 43.84239 | 11.18253 | 3845 ft | 151 kts | 242° |
| 2026-05-08 22:38 | 43.83726 | 11.16973 | 4326 ft | 153 kts | 242° |
| 2026-05-08 22:39 | 43.83210 | 11.15678 | 4809 ft | 154 kts | 242° |
| 2026-05-08 22:39 | 43.82687 | 11.14369 | 5278 ft | 155 kts | 242° |
| 2026-05-08 22:39 | 43.82140 | 11.13084 | 5694 ft | 161 kts | 231° |
| 2026-05-08 22:39 | 43.81135 | 11.12237 | 5923 ft | 182 kts | 187° |
| 2026-05-08 22:40 | 43.79861 | 11.12653 | 6106 ft | 203 kts | 147° |
| 2026-05-08 22:40 | 43.78634 | 11.13789 | 6315 ft | 226 kts | 144° |
| 2026-05-08 22:40 | 43.77273 | 11.15114 | 6589 ft | 248 kts | 144° |
| 2026-05-08 22:40 | 43.75817 | 11.16538 | 6902 ft | 271 kts | 144° |
| 2026-05-08 22:41 | 43.74237 | 11.18076 | 7546 ft | 281 kts | 144° |
| 2026-05-08 22:41 | 43.72620 | 11.19637 | 8362 ft | 286 kts | 145° |
| 2026-05-08 22:41 | 43.70980 | 11.21210 | 9226 ft | 289 kts | 145° |
| 2026-05-08 22:41 | 43.69473 | 11.22651 | 9991 ft | 292 kts | 145° |
| 2026-05-08 22:42 | 43.67759 | 11.24288 | 10438 ft | 310 kts | 146° |
| 2026-05-08 22:42 | 43.65920 | 11.26039 | 10737 ft | 331 kts | 145° |
| 2026-05-08 22:42 | 43.63999 | 11.27869 | 11343 ft | 339 kts | 146° |
| 2026-05-08 22:42 | 43.62046 | 11.29729 | 12065 ft | 343 kts | 146° |
| 2026-05-08 22:43 | 43.60065 | 11.31613 | 12814 ft | 347 kts | 146° |
| 2026-05-08 22:43 | 43.58025 | 11.33410 | 13555 ft | 350 kts | 154° |
| 2026-05-08 22:43 | 43.55743 | 11.34611 | 14219 ft | 353 kts | 167° |
| 2026-05-08 22:43 | 43.53304 | 11.35063 | 14850 ft | 356 kts | 180° |
| 2026-05-08 22:44 | 43.50839 | 11.34727 | 15465 ft | 358 kts | 194° |
| 2026-05-08 22:44 | 43.48410 | 11.33889 | 16097 ft | 361 kts | 195° |
| 2026-05-08 22:44 | 43.45964 | 11.33040 | 16710 ft | 365 kts | 195° |
| 2026-05-08 22:44 | 43.43486 | 11.32190 | 17347 ft | 368 kts | 195° |
| 2026-05-08 22:45 | 43.40988 | 11.31340 | 17979 ft | 371 kts | 195° |
| 2026-05-08 22:45 | 43.38470 | 11.30486 | 18580 ft | 375 kts | 195° |
| 2026-05-08 22:45 | 43.35922 | 11.29623 | 19097 ft | 379 kts | 196° |
| 2026-05-08 22:45 | 43.33354 | 11.28749 | 19631 ft | 382 kts | 196° |
| 2026-05-08 22:46 | 43.30762 | 11.27866 | 20182 ft | 385 kts | 196° |
| 2026-05-08 22:46 | 43.28150 | 11.26978 | 20735 ft | 388 kts | 196° |
| 2026-05-08 22:46 | 43.25522 | 11.26089 | 21294 ft | 390 kts | 197° |
| 2026-05-08 22:46 | 43.22878 | 11.25194 | 21858 ft | 393 kts | 197° |
| 2026-05-08 22:47 | 43.20217 | 11.24291 | 22407 ft | 395 kts | 197° |
| 2026-05-08 22:47 | 43.17540 | 11.23381 | 22932 ft | 398 kts | 197° |
| 2026-05-08 22:47 | 43.14875 | 11.22474 | 23452 ft | 401 kts | 197° |
| 2026-05-08 22:47 | 43.12155 | 11.21553 | 23910 ft | 404 kts | 197° |
| 2026-05-08 22:48 | 43.09381 | 11.20618 | 24335 ft | 406 kts | 197° |
| 2026-05-08 22:48 | 43.06662 | 11.19703 | 24734 ft | 408 kts | 197° |
| 2026-05-08 22:48 | 43.03894 | 11.18768 | 25139 ft | 411 kts | 197° |
| 2026-05-08 22:48 | 43.01116 | 11.17828 | 25518 ft | 413 kts | 197° |
| 2026-05-08 22:49 | 42.98318 | 11.16885 | 25912 ft | 415 kts | 197° |
| 2026-05-08 22:49 | 42.92681 | 11.15000 | 26687 ft | 419 kts | 197° |
| 2026-05-08 22:49 | 42.89846 | 11.14054 | 27067 ft | 421 kts | 197° |
| 2026-05-08 22:50 | 42.86994 | 11.13102 | 27408 ft | 422 kts | 197° |
| 2026-05-08 22:50 | 42.84137 | 11.12148 | 27807 ft | 424 kts | 197° |
| 2026-05-08 22:50 | 42.81267 | 11.11190 | 28176 ft | 425 kts | 197° |
| 2026-05-08 22:50 | 42.78386 | 11.10225 | 28526 ft | 427 kts | 197° |
| 2026-05-08 22:51 | 42.75499 | 11.09256 | 28868 ft | 429 kts | 197° |
| 2026-05-08 22:51 | 42.72594 | 11.08281 | 29203 ft | 431 kts | 197° |
| 2026-05-08 22:51 | 42.69678 | 11.07304 | 29525 ft | 432 kts | 197° |
| 2026-05-08 22:51 | 42.66751 | 11.06326 | 29844 ft | 434 kts | 197° |
| 2026-05-08 22:52 | 42.63816 | 11.05346 | 30157 ft | 435 kts | 197° |
| 2026-05-08 22:52 | 42.60871 | 11.04369 | 30417 ft | 437 kts | 197° |
| 2026-05-08 22:52 | 42.57915 | 11.03389 | 30673 ft | 438 kts | 197° |
| 2026-05-08 22:52 | 42.54948 | 11.02407 | 30922 ft | 439 kts | 197° |
| 2026-05-08 22:53 | 42.51972 | 11.01422 | 31166 ft | 440 kts | 197° |
| 2026-05-08 22:53 | 42.48989 | 11.00435 | 31408 ft | 441 kts | 197° |
| 2026-05-08 22:53 | 42.46014 | 10.99453 | 31760 ft | 439 kts | 197° |
| 2026-05-08 22:53 | 42.43056 | 10.98478 | 32113 ft | 437 kts | 197° |
| 2026-05-08 22:54 | 42.40102 | 10.97505 | 32447 ft | 436 kts | 197° |
| 2026-05-08 22:54 | 42.37201 | 10.96549 | 32760 ft | 435 kts | 197° |
| 2026-05-08 22:54 | 42.34224 | 10.95569 | 33031 ft | 434 kts | 197° |
| 2026-05-08 22:54 | 42.31313 | 10.94611 | 33084 ft | 426 kts | 197° |
| 2026-05-08 22:55 | 42.25648 | 10.92749 | 33086 ft | 419 kts | 197° |
| 2026-05-08 22:55 | 42.19984 | 10.90885 | 33085 ft | 419 kts | 197° |
| 2026-05-08 22:56 | 42.14317 | 10.89024 | 33086 ft | 419 kts | 197° |
| 2026-05-08 22:56 | 42.08659 | 10.87176 | 33072 ft | 419 kts | 197° |
| 2026-05-08 22:57 | 42.02991 | 10.85331 | 33070 ft | 419 kts | 197° |
| 2026-05-08 22:57 | 41.97320 | 10.83488 | 33074 ft | 420 kts | 197° |
| 2026-05-08 22:58 | 41.91639 | 10.81642 | 33080 ft | 420 kts | 197° |
| 2026-05-08 22:58 | 41.85957 | 10.79796 | 33066 ft | 420 kts | 198° |
| 2026-05-08 22:59 | 41.80269 | 10.77947 | 33071 ft | 421 kts | 198° |
| 2026-05-08 22:59 | 41.74576 | 10.76104 | 33074 ft | 421 kts | 198° |
| 2026-05-08 23:00 | 41.68882 | 10.74271 | 33057 ft | 421 kts | 198° |
| 2026-05-08 23:00 | 41.63225 | 10.72447 | 33064 ft | 421 kts | 199° |
| 2026-05-08 23:01 | 41.57523 | 10.70611 | 33072 ft | 421 kts | 199° |
| 2026-05-08 23:01 | 41.51814 | 10.68778 | 33073 ft | 422 kts | 199° |
| 2026-05-08 23:02 | 41.46105 | 10.66954 | 33064 ft | 422 kts | 199° |
| 2026-05-08 23:02 | 41.40398 | 10.65133 | 33068 ft | 422 kts | 199° |
| 2026-05-08 23:03 | 41.34686 | 10.63320 | 33071 ft | 422 kts | 199° |
| 2026-05-08 23:03 | 41.28979 | 10.61500 | 33072 ft | 422 kts | 199° |
| 2026-05-08 23:04 | 41.23304 | 10.59689 | 33061 ft | 422 kts | 200° |
| 2026-05-08 23:04 | 41.17904 | 10.56983 | 33077 ft | 409 kts | 217° |
| 2026-05-08 23:05 | 41.13455 | 10.52466 | 33080 ft | 401 kts | 225° |
| 2026-05-08 23:05 | 41.09182 | 10.47703 | 33079 ft | 401 kts | 225° |
| 2026-05-08 23:06 | 41.04903 | 10.42952 | 33075 ft | 401 kts | 226° |
| 2026-05-08 23:06 | 41.00625 | 10.38215 | 33089 ft | 400 kts | 226° |
| 2026-05-08 23:07 | 40.96340 | 10.33502 | 33094 ft | 400 kts | 226° |
| 2026-05-08 23:07 | 40.92066 | 10.28798 | 33098 ft | 400 kts | 226° |
| 2026-05-08 23:08 | 40.87825 | 10.24119 | 33084 ft | 399 kts | 226° |
| 2026-05-08 23:08 | 40.83571 | 10.19429 | 33092 ft | 398 kts | 227° |
| 2026-05-08 23:09 | 40.79316 | 10.14767 | 33103 ft | 397 kts | 227° |
| 2026-05-08 23:09 | 40.75071 | 10.10127 | 33111 ft | 396 kts | 227° |
| 2026-05-08 23:10 | 40.70836 | 10.05494 | 33018 ft | 396 kts | 227° |
| 2026-05-08 23:10 | 40.68722 | 10.03181 | 32727 ft | 393 kts | 228° |
| 2026-05-08 23:10 | 40.66620 | 10.00890 | 32431 ft | 388 kts | 228° |
| 2026-05-08 23:11 | 40.64557 | 9.98647 | 31950 ft | 383 kts | 227° |
| 2026-05-08 23:11 | 40.62513 | 9.96424 | 31468 ft | 379 kts | 227° |
| 2026-05-08 23:11 | 40.60490 | 9.94221 | 30989 ft | 375 kts | 227° |
| 2026-05-08 23:11 | 40.58487 | 9.92039 | 30519 ft | 372 kts | 227° |
| 2026-05-08 23:12 | 40.56502 | 9.89877 | 30029 ft | 370 kts | 226° |
| 2026-05-08 23:12 | 40.54528 | 9.87734 | 29531 ft | 366 kts | 226° |
| 2026-05-08 23:12 | 40.52576 | 9.85619 | 29079 ft | 361 kts | 226° |
| 2026-05-08 23:12 | 40.50647 | 9.83528 | 28633 ft | 358 kts | 226° |
| 2026-05-08 23:13 | 40.48736 | 9.81458 | 28153 ft | 354 kts | 229° |
| 2026-05-08 23:13 | 40.46852 | 9.79421 | 27775 ft | 349 kts | 229° |
| 2026-05-08 23:13 | 40.44984 | 9.77406 | 27356 ft | 345 kts | 228° |
| 2026-05-08 23:13 | 40.43136 | 9.75412 | 26954 ft | 342 kts | 228° |
| 2026-05-08 23:14 | 40.41312 | 9.73442 | 26553 ft | 338 kts | 228° |
| 2026-05-08 23:14 | 40.39505 | 9.71489 | 26155 ft | 335 kts | 227° |
| 2026-05-08 23:14 | 40.37711 | 9.69549 | 25767 ft | 333 kts | 227° |
| 2026-05-08 23:14 | 40.35929 | 9.67625 | 25393 ft | 331 kts | 227° |
| 2026-05-08 23:15 | 40.34154 | 9.65711 | 25000 ft | 329 kts | 227° |
| 2026-05-08 23:15 | 40.32413 | 9.63834 | 24620 ft | 327 kts | 226° |
| 2026-05-08 23:15 | 40.30659 | 9.61947 | 24227 ft | 326 kts | 226° |
| 2026-05-08 23:15 | 40.28914 | 9.60073 | 23834 ft | 324 kts | 225° |
| 2026-05-08 23:16 | 40.27176 | 9.58202 | 23395 ft | 323 kts | 225° |
| 2026-05-08 23:16 | 40.25445 | 9.56337 | 22986 ft | 321 kts | 225° |
| 2026-05-08 23:16 | 40.23724 | 9.54488 | 22585 ft | 319 kts | 225° |
| 2026-05-08 23:16 | 40.22013 | 9.52654 | 22200 ft | 317 kts | 225° |
| 2026-05-08 23:17 | 40.20306 | 9.50829 | 21796 ft | 316 kts | 225° |
| 2026-05-08 23:17 | 40.18607 | 9.49015 | 21401 ft | 314 kts | 225° |
| 2026-05-08 23:17 | 40.16922 | 9.47216 | 21000 ft | 312 kts | 225° |
| 2026-05-08 23:17 | 40.15244 | 9.45423 | 20605 ft | 311 kts | 225° |
| 2026-05-08 23:18 | 40.13571 | 9.43635 | 20208 ft | 310 kts | 226° |
| 2026-05-08 23:18 | 40.11907 | 9.41853 | 19812 ft | 309 kts | 226° |
| 2026-05-08 23:18 | 40.10243 | 9.40074 | 19420 ft | 308 kts | 225° |
| 2026-05-08 23:18 | 40.08586 | 9.38307 | 19025 ft | 307 kts | 225° |
| 2026-05-08 23:19 | 40.06936 | 9.36552 | 18649 ft | 306 kts | 225° |
| 2026-05-08 23:19 | 40.05289 | 9.34796 | 18228 ft | 305 kts | 225° |
| 2026-05-08 23:19 | 40.03643 | 9.33046 | 17840 ft | 305 kts | 225° |
| 2026-05-08 23:19 | 40.02007 | 9.31303 | 17454 ft | 303 kts | 225° |
| 2026-05-08 23:20 | 40.00376 | 9.29571 | 17068 ft | 301 kts | 225° |
| 2026-05-08 23:20 | 39.98755 | 9.27851 | 16708 ft | 300 kts | 225° |
| 2026-05-08 23:20 | 39.97156 | 9.26155 | 16334 ft | 301 kts | 225° |
| 2026-05-08 23:20 | 39.95536 | 9.24440 | 15966 ft | 299 kts | 225° |
| 2026-05-08 23:21 | 39.93924 | 9.22732 | 15604 ft | 298 kts | 225° |
| 2026-05-08 23:21 | 39.92314 | 9.21026 | 15237 ft | 298 kts | 224° |
| 2026-05-08 23:21 | 39.90707 | 9.19323 | 14855 ft | 297 kts | 224° |
| 2026-05-08 23:21 | 39.89105 | 9.17626 | 14485 ft | 296 kts | 224° |
| 2026-05-08 23:22 | 39.87510 | 9.15941 | 14115 ft | 295 kts | 223° |
| 2026-05-08 23:22 | 39.86362 | 9.14909 | 13863 ft | 299 kts | 216° |
| 2026-05-08 23:22 | 39.84478 | 9.13772 | 13458 ft | 305 kts | 204° |
| 2026-05-08 23:22 | 39.82394 | 9.13033 | 13059 ft | 307 kts | 200° |
| 2026-05-08 23:23 | 39.80325 | 9.12344 | 12667 ft | 307 kts | 200° |
| 2026-05-08 23:23 | 39.78261 | 9.11655 | 12276 ft | 306 kts | 200° |
| 2026-05-08 23:23 | 39.76203 | 9.10965 | 11878 ft | 305 kts | 200° |
| 2026-05-08 23:23 | 39.74163 | 9.10280 | 11456 ft | 309 kts | 200° |
| 2026-05-08 23:24 | 39.72097 | 9.09587 | 11009 ft | 302 kts | 199° |
| 2026-05-08 23:24 | 39.70104 | 9.08923 | 10576 ft | 291 kts | 199° |
| 2026-05-08 23:24 | 39.68181 | 9.08281 | 10151 ft | 281 kts | 199° |
| 2026-05-08 23:24 | 39.66314 | 9.07656 | 9683 ft | 272 kts | 200° |
| 2026-05-08 23:25 | 39.64483 | 9.07153 | 9217 ft | 268 kts | 191° |
| 2026-05-08 23:25 | 39.62629 | 9.07102 | 8760 ft | 264 kts | 184° |
| 2026-05-08 23:25 | 39.60817 | 9.07156 | 8304 ft | 256 kts | 183° |
| 2026-05-08 23:25 | 39.59056 | 9.07204 | 7870 ft | 251 kts | 183° |
| 2026-05-08 23:26 | 39.57329 | 9.07246 | 7425 ft | 246 kts | 183° |
| 2026-05-08 23:26 | 39.55633 | 9.07284 | 7035 ft | 239 kts | 182° |
| 2026-05-08 23:26 | 39.54049 | 9.07151 | 7065 ft | 223 kts | 195° |
| 2026-05-08 23:26 | 39.52583 | 9.06557 | 7066 ft | 220 kts | 208° |
| 2026-05-08 23:27 | 39.51289 | 9.05548 | 6951 ft | 216 kts | 219° |
| 2026-05-08 23:27 | 39.50081 | 9.04392 | 6779 ft | 216 kts | 219° |
| 2026-05-08 23:27 | 39.48866 | 9.03242 | 6485 ft | 216 kts | 218° |
| 2026-05-08 23:27 | 39.47647 | 9.02094 | 6092 ft | 217 kts | 218° |
| 2026-05-08 23:28 | 39.46435 | 9.00958 | 5736 ft | 213 kts | 217° |
| 2026-05-08 23:28 | 39.45254 | 8.99849 | 5401 ft | 207 kts | 217° |
| 2026-05-08 23:28 | 39.44111 | 8.98777 | 5101 ft | 200 kts | 217° |
| 2026-05-08 23:28 | 39.43001 | 8.97736 | 4806 ft | 195 kts | 216° |
| 2026-05-08 23:29 | 39.41902 | 8.96702 | 4505 ft | 196 kts | 216° |
| 2026-05-08 23:29 | 39.40796 | 8.95659 | 4202 ft | 197 kts | 216° |
| 2026-05-08 23:29 | 39.39682 | 8.94611 | 3900 ft | 199 kts | 215° |
| 2026-05-08 23:29 | 39.38558 | 8.93556 | 3594 ft | 200 kts | 215° |
| 2026-05-08 23:30 | 39.37363 | 8.92696 | 3266 ft | 200 kts | 190° |
| 2026-05-08 23:30 | 39.36019 | 8.92907 | 2955 ft | 198 kts | 150° |
| 2026-05-08 23:30 | 39.35017 | 8.94103 | 2657 ft | 198 kts | 131° |
| 2026-05-08 23:30 | 39.34034 | 8.95367 | 2334 ft | 200 kts | 138° |
| 2026-05-08 23:31 | 39.32986 | 8.96547 | 2029 ft | 196 kts | 139° |
| 2026-05-08 23:31 | 39.31986 | 8.97652 | 1734 ft | 182 kts | 139° |
| 2026-05-08 23:31 | 39.31069 | 8.98674 | 1449 ft | 168 kts | 139° |
| 2026-05-08 23:31 | 39.30201 | 8.99653 | 1209 ft | 164 kts | 138° |
| 2026-05-08 23:32 | 39.29351 | 9.00616 | 1016 ft | 162 kts | 138° |
| 2026-05-08 23:32 | 39.28509 | 9.01576 | 762 ft | 161 kts | 137° |
| 2026-05-08 23:32 | 39.27672 | 9.02530 | 521 ft | 158 kts | 137° |
| 2026-05-08 23:32 | 39.26881 | 9.03438 | 258 ft | 147 kts | 137° |
| 2026-05-08 23:33 | 39.26151 | 9.04279 | 67 ft | 140 kts | 137° |
| 2026-05-08 23:33 | 39.25457 | 9.05088 | 17 ft | 122 kts | 137° |
| 2026-05-08 23:33 | 39.24943 | 9.05665 | 16 ft | 73 kts | 138° |
| 2026-05-08 23:33 | 39.24700 | 9.05950 | 15 ft | 24 kts | 128° |
| 2026-05-08 23:34 | 39.24708 | 9.06107 | 16 ft | 15 kts | 68° |
| 2026-05-08 23:34 | 39.24791 | 9.06115 | 15 ft | 14 kts | 322° |
| 2026-05-08 23:34 | 39.24861 | 9.06035 | 15 ft | 13 kts | 319° |
| 2026-05-08 23:34 | 39.24923 | 9.05964 | 15 ft | 11 kts | 317° |
| 2026-05-08 23:35 | 39.24976 | 9.05901 | 15 ft | 10 kts | 317° |
| 2026-05-08 23:35 | 39.25023 | 9.05846 | 15 ft | 10 kts | 318° |
| 2026-05-08 23:35 | 39.25088 | 9.05782 | 15 ft | 12 kts | 340° |
| 2026-05-08 23:35 | 39.25146 | 9.05827 | 15 ft | 10 kts | 58° |
| 2026-05-08 23:36 | 39.25185 | 9.05892 | 15 ft | 8 kts | 26° |
| 2026-05-08 23:36 | 39.25207 | 9.05899 | 15 ft | 1 kts | 7° |
| 2026-05-08 23:36 | 39.25222 | 9.05901 | 15 ft | 3 kts | 6° |
| 2026-05-08 23:36 | 39.25227 | 9.05902 | 15 ft | 0 kts | 6° |